Time;durP1;ratioP1;P1;durP2;ratioP2;P2;SDS_P1;SDS_P2;PMS_P1;PMS_P2;Temp;Humidity;BMP_temperature;BMP_pressure;BME280_temperature;BME280_humidity;BME280_pressure;Samples;Min_cycle;Max_cycle;Signal;HPM_P1;HPM_P2
2022/04/12 00:00:12;;;;;;;5.28;1.50;;;4.60;99.90;;;;;;4911399;29;20497;-55
2022/04/12 00:02:39;;;;;;;4.05;1.50;;;4.50;99.90;;;;;;4917818;29;20400;-52
2022/04/12 00:05:06;;;;;;;;;;;4.40;99.90;;;;;;4911656;29;20053;-50
2022/04/12 00:07:54;;;;;;;3.90;1.90;;;4.40;99.90;;;;;;4917527;29;19965;-51
2022/04/12 00:10:21;;;;;;;6.45;2.15;;;4.40;99.90;;;;;;4916769;29;20115;-53
2022/04/12 00:12:48;;;;;;;3.83;2.13;;;4.40;99.90;;;;;;4917280;29;20050;-51
2022/04/12 00:15:15;;;;;;;4.22;2.05;;;4.30;99.90;;;;;;4915273;29;20051;-51
2022/04/12 00:20:28;;;;;;;2.08;1.20;;;4.10;99.90;;;;;;4916954;29;20043;-51
2022/04/12 00:22:56;;;;;;;2.65;1.10;;;4.10;99.90;;;;;;4916730;29;20066;-52
2022/04/12 00:25:24;;;;;;;7.45;2.17;;;4.10;99.90;;;;;;4917221;29;20048;-53
2022/04/12 00:27:52;;;;;;;3.85;2.03;;;4.00;99.90;;;;;;4917222;29;20072;-53
2022/04/12 00:30:21;;;;;;;5.30;2.20;;;4.00;99.90;;;;;;4916874;29;20036;-52
2022/04/12 00:32:52;;;;;;;4.75;2.00;;;4.00;99.90;;;;;;4914043;29;20044;-50
2022/04/12 00:35:21;;;;;;;4.13;1.80;;;4.00;99.90;;;;;;4917261;29;20047;-51
2022/04/12 00:37:52;;;;;;;4.43;1.83;;;4.00;99.90;;;;;;4917126;29;20048;-52
2022/04/12 00:40:24;;;;;;;2.78;1.52;;;4.00;99.90;;;;;;4916595;29;20064;-54
2022/04/12 00:42:52;;;;;;;5.20;1.73;;;4.10;99.90;;;;;;4913680;29;20036;-51
2022/04/12 00:45:19;;;;;;;3.80;1.67;;;4.10;99.90;;;;;;4916829;29;20056;-52
2022/04/12 00:47:46;;;;;;;;;;;4.10;99.90;;;;;;4917300;29;20040;-52
2022/04/12 00:50:13;;;;;;;5.22;2.00;;;4.10;99.90;;;;;;4910086;29;19926;-52
2022/04/12 00:52:48;;;;;;;5.78;1.48;;;4.20;99.90;;;;;;4916711;29;20040;-52
2022/04/12 00:55:15;;;;;;;2.72;1.83;;;4.20;99.90;;;;;;4916773;29;20162;-51
2022/04/12 00:57:43;;;;;;;4.03;1.48;;;4.10;99.90;;;;;;4914282;29;20037;-52
2022/04/12 01:00:11;;;;;;;2.65;1.40;;;4.10;99.90;;;;;;4916535;29;20374;-51
2022/04/12 01:02:39;;;;;;;4.03;1.27;;;4.10;99.90;;;;;;4916397;29;20082;-51
2022/04/12 01:05:07;;;;;;;3.17;1.13;;;4.10;99.90;;;;;;4916549;29;20048;-52
2022/04/12 01:07:34;;;;;;;3.40;1.50;;;4.20;99.90;;;;;;4909994;29;20048;-52
2022/04/12 01:10:02;;;;;;;3.65;1.38;;;4.20;99.90;;;;;;4915868;29;20040;-52
2022/04/12 01:12:30;;;;;;;;;;;4.20;99.90;;;;;;4916409;29;20523;-53
2022/04/12 01:15:14;;;;;;;2.38;1.02;;;4.20;99.90;;;;;;4915692;29;19930;-51
2022/04/12 01:17:42;;;;;;;6.45;1.58;;;4.20;99.90;;;;;;4910468;29;20445;-51
2022/04/12 01:20:10;;;;;;;3.03;1.38;;;4.20;99.90;;;;;;4916051;29;20047;-51
2022/04/12 01:22:47;;;;;;;2.55;1.20;;;4.10;99.90;;;;;;4915246;29;20051;-52
2022/04/12 01:25:14;;;;;;;3.67;1.30;;;4.00;99.90;;;;;;4911089;29;20056;-54
2022/04/12 01:27:41;;;;;;;1.65;0.98;;;3.90;99.90;;;;;;4915014;29;20044;-52
2022/04/12 01:30:08;;;;;;;1.70;1.00;;;3.80;99.90;;;;;;4915820;29;20463;-52
2022/04/12 01:32:35;;;;;;;1.58;0.90;;;3.70;99.90;;;;;;4912272;29;20048;-51
2022/04/12 01:35:02;;;;;;;2.38;1.10;;;3.60;99.90;;;;;;4912606;29;20040;-53
2022/04/12 01:37:28;;;;;;;1.33;0.70;;;3.50;99.90;;;;;;4915842;29;20044;-52
2022/04/12 01:39:56;;;;;;;8.63;0.85;;;3.50;99.90;;;;;;4915622;29;20517;-55
2022/04/12 01:42:22;;;;;;;1.13;0.77;;;3.40;99.90;;;;;;4912256;29;20446;-51
2022/04/12 01:44:49;;;;;;;1.55;1.15;;;3.40;99.90;;;;;;4915796;29;20052;-51
2022/04/12 01:47:17;;;;;;;3.78;0.90;;;3.40;99.90;;;;;;4915603;29;20048;-51
2022/04/12 01:49:44;;;;;;;1.13;0.73;;;3.50;99.90;;;;;;4915370;29;20058;-52
2022/04/12 01:52:11;;;;;;;1.08;0.80;;;3.40;99.90;;;;;;4913747;29;20497;-51
2022/04/12 01:54:38;;;;;;;4.55;1.38;;;3.50;99.90;;;;;;4915729;29;20048;-51
2022/04/12 01:57:05;;;;;;;4.40;0.88;;;3.50;99.90;;;;;;4915547;29;20540;-52
2022/04/12 01:59:32;;;;;;;2.60;1.42;;;3.50;99.90;;;;;;4910663;29;20092;-55
2022/04/12 02:01:59;;;;;;;2.47;0.80;;;3.50;99.90;;;;;;4915862;29;20410;-53
2022/04/12 02:04:26;;;;;;;4.80;0.98;;;3.60;99.90;;;;;;4915520;29;20493;-51
2022/04/12 02:06:52;;;;;;;2.28;1.23;;;3.60;99.90;;;;;;4915609;29;20170;-52
2022/04/12 02:09:19;;;;;;;1.52;1.10;;;3.60;99.90;;;;;;4911119;29;20048;-52
2022/04/12 02:11:46;;;;;;;3.47;1.30;;;3.60;99.90;;;;;;4915367;29;20048;-50
2022/04/12 02:17:52;;;;;;;2.38;1.05;;;3.70;99.90;;;;;;4916359;29;20102;-58
2022/04/12 02:20:18;;;;;;;1.88;1.00;;;3.60;99.90;;;;;;4933994;29;20166;-60
2022/04/12 02:22:45;;;;;;;2.08;1.02;;;3.60;99.90;;;;;;4911401;29;20044;-59
2022/04/12 02:25:12;;;;;;;2.42;0.82;;;3.60;99.90;;;;;;4915275;29;20532;-58
2022/04/12 02:27:38;;;;;;;1.70;1.10;;;3.60;99.90;;;;;;4915206;29;20052;-59
2022/04/12 02:30:06;;;;;;;2.40;1.27;;;3.60;99.90;;;;;;4909425;29;20040;-60
2022/04/12 02:32:33;;;;;;;2.70;1.30;;;3.60;99.90;;;;;;4914985;29;20047;-59
2022/04/12 02:35:00;;;;;;;2.95;1.38;;;3.60;99.90;;;;;;4919739;29;20052;-60
2022/04/12 02:37:27;;;;;;;;;;;3.50;99.90;;;;;;4913848;29;20773;-58
2022/04/12 02:39:54;;;;;;;2.38;1.23;;;3.50;99.90;;;;;;4921044;29;19927;-60
2022/04/12 02:42:21;;;;;;;4.25;1.75;;;3.50;99.90;;;;;;4921406;29;20048;-60
2022/04/12 02:44:48;;;;;;;5.50;1.85;;;3.40;99.90;;;;;;4921602;29;20040;-60
2022/04/12 02:47:14;;;;;;;3.15;1.60;;;3.40;99.90;;;;;;4920171;29;20047;-59
2022/04/12 02:49:41;;;;;;;6.15;2.30;;;3.30;99.90;;;;;;4920990;29;20059;-60
2022/04/12 02:52:11;;;;;;;5.80;2.08;;;3.30;99.90;;;;;;4921731;29;20446;-60
2022/04/12 02:54:37;;;;;;;4.53;2.15;;;3.20;99.90;;;;;;4917070;29;20092;-60
2022/04/12 02:57:04;;;;;;;2.50;1.55;;;3.10;99.90;;;;;;4918424;29;20457;-60
2022/04/12 02:59:31;;;;;;;3.17;1.58;;;3.10;99.90;;;;;;4920987;29;20111;-58
2022/04/12 03:01:57;;;;;;;3.05;1.08;;;3.10;99.90;;;;;;4921413;29;20100;-60
2022/04/12 03:04:24;;;;;;;3.45;1.35;;;3.10;99.90;;;;;;4918568;29;20598;-60
2022/04/12 03:06:51;;;;;;;5.68;1.60;;;3.10;99.90;;;;;;4916492;29;20044;-60
2022/04/12 03:09:18;;;;;;;2.53;1.70;;;3.10;99.90;;;;;;4921206;29;20048;-60
2022/04/12 03:11:45;;;;;;;5.35;1.98;;;3.00;99.90;;;;;;4921183;29;20299;-60
2022/04/12 03:14:12;;;;;;;6.35;2.38;;;3.00;99.90;;;;;;4918242;29;20056;-60
2022/04/12 03:16:38;;;;;;;5.32;2.95;;;2.90;99.90;;;;;;4921236;29;20036;-59
2022/04/12 03:19:05;;;;;;;5.03;1.98;;;2.90;99.90;;;;;;4921126;29;20048;-59
2022/04/12 03:21:33;;;;;;;5.80;3.05;;;2.90;99.90;;;;;;4920873;29;20107;-60
2022/04/12 03:23:59;;;;;;;;;;;2.90;99.90;;;;;;4917576;29;20051;-60
2022/04/12 03:26:26;;;;;;;5.47;2.95;;;3.00;99.90;;;;;;4921052;29;19971;-59
2022/04/12 03:28:53;;;;;;;8.90;3.45;;;3.10;99.90;;;;;;4921107;29;20051;-60
2022/04/12 03:31:21;;;;;;;5.00;2.90;;;3.20;99.90;;;;;;4920284;29;20500;-60
2022/04/12 03:33:48;;;;;;;6.28;2.65;;;3.20;99.90;;;;;;4916078;29;20100;-59
2022/04/12 03:36:15;;;;;;;2.85;2.03;;;3.10;99.90;;;;;;4920556;29;20056;-59
2022/04/12 03:38:48;;;;;;;8.52;3.17;;;2.90;99.90;;;;;;4920604;29;20048;-60
2022/04/12 03:41:21;;;;;;;5.00;2.47;;;2.80;99.90;;;;;;4918550;29;20044;-59
2022/04/12 03:43:47;;;;;;;6.53;2.30;;;2.70;99.90;;;;;;4918187;29;20040;-60
2022/04/12 03:46:14;;;;;;;4.07;1.20;;;2.60;99.90;;;;;;4917601;29;20100;-59
2022/04/12 03:48:42;;;;;;;2.83;1.77;;;2.60;99.90;;;;;;4917552;29;20040;-60
2022/04/12 03:51:08;;;;;;;9.35;2.88;;;2.40;99.90;;;;;;4917653;29;20040;-59
2022/04/12 03:53:37;;;;;;;7.35;2.70;;;2.50;99.90;;;;;;4913844;29;20408;-60
2022/04/12 03:56:07;;;;;;;7.18;3.03;;;2.50;99.90;;;;;;4900965;29;20096;-60
2022/04/12 03:58:38;;;;;;;6.82;3.40;;;2.60;99.90;;;;;;4917424;29;20040;-60
2022/04/12 04:01:05;;;;;;;3.65;1.73;;;2.60;99.90;;;;;;4909269;29;20401;-59
2022/04/12 04:03:32;;;;;;;3.83;1.67;;;2.50;99.90;;;;;;4917518;29;20105;-60
2022/04/12 04:05:59;;;;;;;3.78;1.70;;;2.40;99.90;;;;;;4917803;29;20051;-59
2022/04/12 04:08:26;;;;;;;3.95;1.90;;;2.40;99.90;;;;;;4915463;29;20576;-59
2022/04/12 04:10:52;;;;;;;2.13;1.60;;;2.40;99.90;;;;;;4916815;29;20048;-59
2022/04/12 04:13:20;;;;;;;3.83;1.70;;;2.40;99.90;;;;;;4916989;29;20050;-60
2022/04/12 04:15:46;;;;;;;5.35;1.63;;;2.40;99.90;;;;;;4914350;29;20047;-59
2022/04/12 04:18:14;;;;;;;6.15;1.73;;;2.40;99.90;;;;;;4915699;29;20064;-59
2022/04/12 04:20:42;;;;;;;5.13;1.70;;;2.40;99.90;;;;;;4916977;29;20044;-60
2022/04/12 04:23:09;;;;;;;5.63;1.98;;;2.50;99.90;;;;;;4916870;29;20059;-59
2022/04/12 04:25:36;;;;;;;4.72;2.22;;;2.40;99.90;;;;;;4910406;29;20095;-59
2022/04/12 04:28:05;;;;;;;3.45;2.22;;;2.40;99.90;;;;;;4917265;29;20441;-59
2022/04/12 04:30:33;;;;;;;5.93;3.05;;;2.40;99.90;;;;;;4917097;29;20453;-60
2022/04/12 04:33:00;;;;;;;9.05;5.03;;;2.50;99.90;;;;;;4915476;29;20048;-60
2022/04/12 04:35:27;;;;;;;5.95;3.28;;;2.60;99.90;;;;;;4916288;29;20052;-59
2022/04/12 04:37:53;;;;;;;16.52;5.95;;;2.60;99.90;;;;;;4916772;29;20048;-60
2022/04/12 04:40:21;;;;;;;8.13;2.88;;;2.60;99.90;;;;;;4916509;29;20046;-60
2022/04/12 04:42:52;;;;;;;10.95;3.35;;;2.50;99.90;;;;;;4916008;29;20036;-59
2022/04/12 04:45:19;;;;;;;12.35;4.00;;;2.50;99.90;;;;;;4916867;29;20075;-59
2022/04/12 04:47:54;;;;;;;8.65;2.58;;;2.50;99.90;;;;;;4916889;29;20058;-59
2022/04/12 04:50:23;;;;;;;7.13;2.63;;;2.50;99.90;;;;;;4916598;29;20052;-60
2022/04/12 04:52:50;;;;;;;6.97;2.25;;;2.50;99.90;;;;;;4915294;29;20059;-59
2022/04/12 04:55:18;;;;;;;4.10;1.77;;;2.50;99.90;;;;;;4899305;29;20048;-60
2022/04/12 04:57:46;;;;;;;2.88;1.95;;;2.40;99.90;;;;;;4916597;29;20048;-60
2022/04/12 05:00:17;;;;;;;4.75;1.75;;;2.40;99.90;;;;;;4913972;29;20068;-60
2022/04/12 05:02:49;;;;;;;3.72;1.50;;;2.40;99.90;;;;;;4916524;29;20044;-59
2022/04/12 05:05:17;;;;;;;3.22;1.80;;;2.40;99.90;;;;;;4916671;29;20036;-60
2022/04/12 05:07:52;;;;;;;6.72;2.28;;;2.50;99.90;;;;;;4915788;29;20052;-60
2022/04/12 05:10:21;;;;;;;10.75;2.25;;;2.50;99.90;;;;;;4897719;29;20577;-60
2022/04/12 05:12:47;;;;;;;4.03;2.15;;;2.50;99.90;;;;;;4915858;29;20048;-60
2022/04/12 05:15:15;;;;;;;3.05;1.52;;;2.60;99.90;;;;;;4916123;29;20572;-60
2022/04/12 05:17:50;;;;;;;8.65;2.67;;;2.60;99.90;;;;;;4915456;29;20619;-60
2022/04/12 05:20:18;;;;;;;9.05;3.65;;;2.70;99.90;;;;;;4913706;29;20056;-60
2022/04/12 05:22:45;;;;;;;22.55;11.63;;;2.80;99.90;;;;;;4915706;29;20096;-60
2022/04/12 05:25:12;;;;;;;28.85;12.68;;;2.90;99.90;;;;;;4916036;29;20096;-60
2022/04/12 05:27:39;;;;;;;25.35;14.63;;;3.00;99.90;;;;;;4907654;29;20458;-60
2022/04/12 05:30:08;;;;;;;13.13;8.32;;;3.10;99.90;;;;;;4915629;29;20045;-60
2022/04/12 05:32:35;;;;;;;20.13;8.80;;;3.20;99.90;;;;;;4898794;29;20052;-60
2022/04/12 05:35:05;;;;;;;;;;;3.20;99.90;;;;;;4916420;29;20058;-60
2022/04/12 05:37:40;;;;;;;10.98;5.93;;;3.40;99.90;;;;;;4912345;29;19928;-60
2022/04/12 05:40:09;;;;;;;12.18;6.10;;;3.40;99.90;;;;;;4915407;29;20055;-60
2022/04/12 05:42:36;;;;;;;8.38;4.80;;;3.50;99.90;;;;;;4916013;29;20048;-60
2022/04/12 05:45:03;;;;;;;7.80;4.70;;;3.60;99.90;;;;;;4912535;29;20093;-60
2022/04/12 05:47:43;;;;;;;14.98;4.55;;;3.70;99.90;;;;;;4915632;29;20560;-60
2022/04/12 05:50:12;;;;;;;12.32;5.07;;;3.90;99.90;;;;;;4915489;29;20453;-60
2022/04/12 05:52:39;;;;;;;10.18;5.18;;;3.90;99.90;;;;;;4914762;29;20048;-60
2022/04/12 05:55:10;;;;;;;13.00;4.47;;;4.00;99.90;;;;;;4912805;29;20067;-60
2022/04/12 05:57:46;;;;;;;12.90;4.43;;;4.00;99.90;;;;;;4915342;29;20048;-60
2022/04/12 06:00:13;;;;;;;6.32;4.28;;;4.10;99.90;;;;;;4915297;29;20052;-60
2022/04/12 06:02:40;;;;;;;10.07;3.80;;;4.10;99.90;;;;;;4911649;29;20071;-60
2022/04/12 06:05:13;;;;;;;7.25;3.53;;;4.10;99.90;;;;;;4915048;29;20059;-60
2022/04/12 06:07:41;;;;;;;9.15;3.85;;;4.20;99.90;;;;;;4913875;29;20048;-60
2022/04/12 06:10:12;;;;;;;6.65;3.83;;;4.30;99.90;;;;;;4911813;29;20051;-60
2022/04/12 06:12:39;;;;;;;8.65;3.35;;;4.40;99.90;;;;;;4914765;29;20044;-60
2022/04/12 06:15:07;;;;;;;8.27;3.75;;;4.50;99.90;;;;;;4915025;29;20044;-60
2022/04/12 06:17:36;;;;;;;8.00;3.60;;;4.60;99.90;;;;;;4914009;29;20046;-60
2022/04/12 06:20:12;;;;;;;6.97;3.25;;;4.70;99.90;;;;;;4911192;29;20040;-60
2022/04/12 06:22:39;;;;;;;8.65;3.30;;;4.90;99.90;;;;;;4915241;29;20470;-60
2022/04/12 06:25:07;;;;;;;12.23;3.38;;;5.00;99.90;;;;;;4915242;29;20044;-60
2022/04/12 06:27:36;;;;;;;4.88;2.58;;;5.20;99.90;;;;;;4910639;29;20046;-59
2022/04/12 06:30:06;;;;;;;8.82;3.00;;;5.40;99.90;;;;;;4911726;29;20044;-59
2022/04/12 06:32:34;;;;;;;7.50;2.70;;;5.60;99.90;;;;;;4915105;29;20048;-60
2022/04/12 06:35:03;;;;;;;15.18;3.13;;;5.70;99.90;;;;;;4915230;29;20048;-60
2022/04/12 06:37:29;;;;;;;8.10;2.90;;;6.00;99.90;;;;;;4914934;29;20043;-60
2022/04/12 06:39:57;;;;;;;5.38;2.72;;;6.00;99.90;;;;;;4914450;29;20044;-60
2022/04/12 06:42:24;;;;;;;5.68;2.40;;;6.20;99.90;;;;;;4915196;29;20052;-59
2022/04/12 06:44:51;;;;;;;5.35;2.65;;;6.40;99.90;;;;;;4908818;29;20040;-60
2022/04/12 06:47:18;;;;;;;5.15;2.78;;;6.60;99.90;;;;;;4913807;29;20059;-60
2022/04/12 06:49:50;;;;;;;3.05;2.15;;;6.80;99.90;;;;;;4914521;29;20446;-60
2022/04/12 06:52:19;;;;;;;5.40;2.03;;;6.80;99.90;;;;;;4914841;29;20103;-60
2022/04/12 06:54:46;;;;;;;4.22;2.30;;;7.00;99.90;;;;;;4912826;29;20048;-60
2022/04/12 06:57:13;;;;;;;5.47;2.47;;;7.10;99.90;;;;;;4914916;29;20048;-60
2022/04/12 06:59:40;;;;;;;4.68;2.70;;;7.20;99.90;;;;;;4914731;29;20137;-60
2022/04/12 07:02:07;;;;;;;7.10;2.60;;;7.30;99.90;;;;;;4912741;29;20077;-60
2022/04/12 07:04:34;;;;;;;4.75;2.60;;;7.40;99.90;;;;;;4914593;29;20047;-60
2022/04/12 07:07:01;;;;;;;5.33;2.67;;;7.60;99.90;;;;;;4914969;29;20060;-60
2022/04/12 07:09:29;;;;;;;3.70;2.35;;;7.80;99.90;;;;;;4914452;29;20299;-60
2022/04/12 07:11:57;;;;;;;4.68;2.70;;;7.90;99.90;;;;;;4911691;29;20453;-60
2022/04/12 07:14:25;;;;;;;6.30;2.50;;;8.00;99.90;;;;;;4914606;29;20114;-60
2022/04/12 07:16:52;;;;;;;3.15;2.10;;;8.00;99.90;;;;;;4914524;29;20506;-60
2022/04/12 07:19:19;;;;;;;4.93;2.30;;;8.20;99.90;;;;;;4913073;29;20076;-60
2022/04/12 07:21:46;;;;;;;3.63;2.30;;;8.30;99.90;;;;;;4916564;29;20048;-60
2022/04/12 07:24:13;;;;;;;2.58;1.70;;;8.40;99.90;;;;;;4918212;29;20501;-60
2022/04/12 07:26:40;;;;;;;3.17;1.90;;;8.50;99.90;;;;;;4916720;29;20048;-60
2022/04/12 07:29:07;;;;;;;5.50;2.13;;;8.60;99.90;;;;;;4915380;29;20395;-60
2022/04/12 07:31:34;;;;;;;5.57;1.90;;;8.70;99.90;;;;;;4918428;29;20052;-60
2022/04/12 07:34:01;;;;;;;5.78;2.05;;;8.70;99.90;;;;;;4918208;29;20127;-60
2022/04/12 07:36:28;;;;;;;9.48;2.55;;;8.80;99.90;;;;;;4915394;29;20048;-60
2022/04/12 07:38:54;;;;;;;4.20;2.08;;;9.10;99.90;;;;;;4918143;29;20048;-60
2022/04/12 07:41:21;;;;;;;4.78;2.05;;;9.20;99.90;;;;;;4917609;29;20564;-60
2022/04/12 07:43:49;;;;;;;5.80;2.72;;;9.40;99.90;;;;;;4917843;29;20512;-60
2022/04/12 07:46:16;;;;;;;3.65;2.03;;;9.60;99.90;;;;;;4916436;29;20056;-60
2022/04/12 07:48:48;;;;;;;3.85;2.25;;;9.80;99.90;;;;;;4917990;29;20048;-59
2022/04/12 07:51:15;;;;;;;2.53;1.67;;;9.90;99.90;;;;;;4917645;29;20072;-60
2022/04/12 07:53:42;;;;;;;4.80;2.80;;;10.00;99.90;;;;;;4913023;29;20091;-59
2022/04/12 07:56:09;;;;;;;4.45;2.08;;;10.00;99.90;;;;;;4917651;29;20048;-59
2022/04/12 07:58:36;;;;;;;6.63;2.20;;;10.10;99.90;;;;;;4917721;29;20055;-60
2022/04/12 08:01:03;;;;;;;12.80;2.25;;;10.30;99.90;;;;;;4917426;29;20076;-60
2022/04/12 08:03:29;;;;;;;5.03;2.40;;;10.50;99.90;;;;;;4911994;29;20390;-60
2022/04/12 08:05:57;;;;;;;4.47;2.00;;;10.60;99.90;;;;;;4917550;29;20048;-60
2022/04/12 08:08:23;;;;;;;2.95;1.92;;;10.80;99.90;;;;;;4917590;29;20048;-60
2022/04/12 08:10:50;;;;;;;3.63;2.03;;;11.10;99.90;;;;;;4913402;29;20063;-60
2022/04/12 08:13:17;;;;;;;5.15;2.42;;;11.20;99.90;;;;;;4929149;23;20026;-52
2022/04/12 08:15:44;;;;;;;3.47;2.00;;;11.30;99.90;;;;;;4916724;29;20044;-54
2022/04/12 08:18:12;;;;;;;4.32;1.70;;;11.40;99.90;;;;;;4917106;29;20064;-50
2022/04/12 08:20:38;;;;;;;;;;;11.60;99.90;;;;;;4913820;29;20413;-50
2022/04/12 08:23:06;;;;;;;3.63;2.00;;;11.70;99.90;;;;;;4917506;29;19927;-52
2022/04/12 08:25:32;;;;;;;4.25;2.35;;;11.70;99.90;;;;;;4919086;29;20436;-54
2022/04/12 08:27:59;;;;;;;3.28;2.08;;;11.80;99.90;;;;;;4936110;29;20118;-52
2022/04/12 08:30:26;;;;;;;4.15;1.90;;;12.00;99.90;;;;;;4922389;29;20109;-52
2022/04/12 08:32:53;;;;;;;3.78;2.10;;;12.20;99.90;;;;;;4916584;29;20103;-50
2022/04/12 08:35:20;;;;;;;5.90;2.13;;;12.40;99.90;;;;;;4916923;29;20052;-54
2022/04/12 08:37:47;;;;;;;8.20;2.05;;;12.40;99.90;;;;;;4917716;29;20055;-52
2022/04/12 08:40:18;;;;;;;3.15;2.03;;;12.60;99.90;;;;;;4914085;29;20080;-55
2022/04/12 08:42:46;;;;;;;5.68;2.17;;;12.70;99.90;;;;;;4917014;29;20040;-53
2022/04/12 08:45:13;;;;;;;3.95;1.90;;;12.90;99.90;;;;;;4916977;29;20040;-50
2022/04/12 08:47:41;;;;;;;5.88;1.80;;;13.10;99.90;;;;;;4916807;29;20040;-51
2022/04/12 08:50:09;;;;;;;5.57;2.13;;;13.10;99.90;;;;;;4913938;29;20058;-53
2022/04/12 08:52:37;;;;;;;3.78;2.08;;;13.30;99.90;;;;;;4917005;29;20058;-53
2022/04/12 08:55:08;;;;;;;4.20;2.00;;;13.20;99.60;;;;;;4916655;29;20490;-54
2022/04/12 08:57:35;;;;;;;3.28;2.35;;;13.30;99.90;;;;;;4912409;29;20048;-55
2022/04/12 09:00:03;;;;;;;4.90;2.20;;;13.60;99.30;;;;;;4916196;29;20040;-51
2022/04/12 09:02:30;;;;;;;8.45;2.30;;;13.80;99.80;;;;;;4916652;29;20107;-50
2022/04/12 09:04:57;;;;;;;4.75;2.15;;;14.00;97.30;;;;;;4914018;29;20036;-54
2022/04/12 09:07:26;;;;;;;5.43;2.10;;;14.10;95.90;;;;;;4915907;29;20040;-52
2022/04/12 09:10:08;;;;;;;5.05;1.95;;;14.30;94.50;;;;;;4916137;29;20052;-53
2022/04/12 09:12:35;;;;;;;4.82;2.22;;;14.50;95.00;;;;;;4916635;29;20064;-51
2022/04/12 09:15:08;;;;;;;5.88;2.50;;;14.70;94.30;;;;;;4898415;29;20059;-52
2022/04/12 09:17:37;;;;;;;4.47;2.28;;;14.90;93.60;;;;;;4916229;29;20107;-51
2022/04/12 09:20:12;;;;;;;5.63;2.10;;;15.20;93.40;;;;;;4915683;29;20055;-52
2022/04/12 09:22:39;;;;;;;3.22;2.10;;;15.20;92.20;;;;;;4916214;29;20063;-53
2022/04/12 09:25:13;;;;;;;5.03;1.98;;;15.30;92.00;;;;;;4908998;29;20043;-51
2022/04/12 09:27:44;;;;;;;3.67;2.20;;;15.40;92.20;;;;;;4916138;29;20044;-51
2022/04/12 09:30:12;;;;;;;8.43;2.45;;;15.20;90.20;;;;;;4915715;29;20087;-51
2022/04/12 09:32:41;;;;;;;5.63;2.25;;;15.10;89.70;;;;;;4912912;29;20131;-55
2022/04/12 09:35:09;;;;;;;7.07;2.67;;;15.20;89.80;;;;;;4915911;29;20044;-50
2022/04/12 09:37:40;;;;;;;5.55;2.63;;;15.30;89.40;;;;;;4915952;29;20059;-52
2022/04/12 09:40:11;;;;;;;6.57;2.22;;;15.40;89.20;;;;;;4915532;29;20048;-52
2022/04/12 09:43:05;;;;;;;3.78;2.40;;;15.70;87.10;;;;;;4911962;29;20644;-52
2022/04/12 09:45:33;;;;;;;7.22;2.53;;;15.70;86.80;;;;;;4915533;29;20545;-51
2022/04/12 09:48:03;;;;;;;6.32;2.40;;;15.80;86.00;;;;;;4915645;29;20055;-51
2022/04/12 09:50:51;;;;;;;8.48;2.72;;;16.00;87.70;;;;;;4910419;29;20064;-51
2022/04/12 09:53:17;;;;;;;5.03;2.92;;;16.10;86.20;;;;;;4914320;29;20062;-50
2022/04/12 09:55:52;;;;;;;4.82;2.35;;;16.40;87.70;;;;;;4915543;29;20060;-53
2022/04/12 09:58:22;;;;;;;7.07;2.80;;;16.40;84.50;;;;;;4915742;29;20056;-56
2022/04/12 10:00:49;;;;;;;6.82;2.90;;;16.60;85.00;;;;;;4913210;29;20083;-53
2022/04/12 10:03:18;;;;;;;3.22;2.17;;;16.70;82.80;;;;;;4915382;29;20044;-55
2022/04/12 10:05:46;;;;;;;3.90;2.67;;;16.60;80.70;;;;;;4915487;29;20430;-51
2022/04/12 10:08:22;;;;;;;6.22;2.50;;;16.60;84.10;;;;;;4911580;29;20040;-54
2022/04/12 10:10:49;;;;;;;7.22;2.60;;;16.80;80.90;;;;;;4898098;29;20436;-54
2022/04/12 10:13:16;;;;;;;4.72;2.78;;;16.70;80.40;;;;;;4915266;29;20112;-54
2022/04/12 10:15:43;;;;;;;7.43;2.63;;;16.70;79.20;;;;;;4911558;29;20044;-54
2022/04/12 10:18:15;;;;;;;6.55;3.15;;;16.90;79.20;;;;;;4912977;29;20052;-51
2022/04/12 10:20:43;;;;;;;9.50;4.20;;;17.00;77.50;;;;;;4914652;29;20052;-51
2022/04/12 10:23:17;;;;;;;11.43;4.43;;;17.00;80.10;;;;;;4915447;29;20091;-52
2022/04/12 10:25:49;;;;;;;6.13;3.22;;;17.10;78.50;;;;;;4912129;29;20426;-54
2022/04/12 10:28:17;;;;;;;17.77;6.50;;;17.20;75.20;;;;;;4915191;29;20055;-53
2022/04/12 10:30:44;;;;;;;11.07;5.20;;;17.20;74.80;;;;;;4897495;29;20400;-51
2022/04/12 10:33:20;;;;;;;18.10;5.90;;;17.40;76.80;;;;;;4915152;29;20516;-55
2022/04/12 10:35:47;;;;;;;5.85;3.00;;;17.40;74.00;;;;;;4909195;29;20076;-53
2022/04/12 10:38:19;;;;;;;7.63;2.42;;;17.50;75.20;;;;;;4914999;29;20060;-51
2022/04/12 10:40:54;;;;;;;8.75;2.78;;;17.50;72.80;;;;;;4914614;29;20055;-51
2022/04/12 10:43:33;;;;;;;12.60;5.28;;;17.50;75.80;;;;;;4914907;29;20048;-55
2022/04/12 10:46:08;;;;;;;6.20;3.13;;;17.80;76.20;;;;;;4911921;29;20099;-53
2022/04/12 10:48:35;;;;;;;5.15;3.03;;;18.10;75.30;;;;;;4896217;29;20072;-53
2022/04/12 10:51:04;;;;;;;12.93;4.93;;;18.10;71.60;;;;;;4895584;29;20048;-54
2022/04/12 10:53:37;;;;;;;7.53;4.13;;;18.30;72.80;;;;;;4907227;29;20040;-55
2022/04/12 10:56:16;;;;;;;12.15;4.28;;;18.50;71.80;;;;;;4917364;29;20047;-52
2022/04/12 10:58:44;;;;;;;8.60;4.72;;;18.40;68.00;;;;;;4918894;29;20055;-53
2022/04/12 11:01:27;;;;;;;5.93;3.80;;;18.40;67.90;;;;;;4918253;29;20101;-55
2022/04/12 11:03:55;;;;;;;5.35;3.03;;;18.60;71.70;;;;;;4914117;29;20044;-54
2022/04/12 11:06:24;;;;;;;4.30;2.60;;;18.70;70.80;;;;;;4918621;29;20044;-55
2022/04/12 11:08:56;;;;;;;5.72;2.40;;;18.70;70.80;;;;;;4919229;29;20374;-55
2022/04/12 11:11:33;;;;;;;8.30;2.58;;;18.70;71.30;;;;;;4916717;29;20449;-55
2022/04/12 11:14:33;;;;;;;6.20;2.30;;;18.80;70.00;;;;;;4915124;29;20489;-57
2022/04/12 11:17:02;;;;;;;6.22;2.35;;;18.90;71.50;;;;;;4899599;29;20056;-54
2022/04/12 11:19:43;;;;;;;4.43;1.90;;;18.90;71.50;;;;;;4899254;29;20104;-56
2022/04/12 11:22:14;;;;;;;4.55;1.67;;;19.00;72.00;;;;;;4908170;29;20052;-53
2022/04/12 11:24:41;;;;;;;5.45;1.75;;;19.00;72.10;;;;;;4918104;29;20063;-56
2022/04/12 11:27:12;;;;;;;5.90;1.75;;;19.10;67.20;;;;;;4918342;29;20092;-54
2022/04/12 11:29:41;;;;;;;8.35;1.52;;;19.20;65.80;;;;;;4912782;29;20059;-55
2022/04/12 11:32:10;;;;;;;1.40;1.00;;;19.30;62.10;;;;;;4915952;29;20055;-55
2022/04/12 11:34:38;;;;;;;2.38;1.40;;;19.40;65.20;;;;;;4918222;29;20048;-53
2022/04/12 11:37:07;;;;;;;3.55;1.27;;;19.50;61.50;;;;;;4918105;29;20056;-55
2022/04/12 11:39:44;;;;;;;2.90;1.13;;;19.60;63.80;;;;;;4912301;29;20044;-55
2022/04/12 11:42:15;;;;;;;4.20;1.30;;;19.80;65.00;;;;;;4918035;29;20066;-53
2022/04/12 11:44:53;;;;;;;2.65;1.30;;;19.80;63.60;;;;;;4917756;29;20048;-55
2022/04/12 11:47:26;;;;;;;3.35;1.52;;;19.80;59.20;;;;;;4916128;29;20100;-54
2022/04/12 11:49:52;;;;;;;1.90;1.30;;;19.80;61.30;;;;;;4917467;29;20055;-55
2022/04/12 11:52:19;;;;;;;4.32;1.38;;;19.90;63.10;;;;;;4918000;29;20048;-55
2022/04/12 11:54:50;;;;;;;3.88;1.50;;;20.00;60.30;;;;;;4917771;29;20052;-56
2022/04/12 11:57:22;;;;;;;2.50;1.13;;;20.00;59.30;;;;;;4909822;29;20048;-55
2022/04/12 11:59:53;;;;;;;3.03;1.25;;;20.10;59.30;;;;;;4917266;29;20036;-57
2022/04/12 12:02:25;;;;;;;3.20;1.17;;;20.10;60.30;;;;;;4917647;29;20072;-55
2022/04/12 12:05:00;;;;;;;3.92;1.20;;;20.20;60.70;;;;;;4917481;29;20048;-56
2022/04/12 12:07:28;;;;;;;6.55;1.33;;;20.30;62.70;;;;;;4912752;29;20044;-55
2022/04/12 12:09:57;;;;;;;3.70;1.67;;;20.30;61.50;;;;;;4917223;29;20327;-54
2022/04/12 12:12:33;;;;;;;1.65;1.30;;;20.40;62.50;;;;;;4917646;29;20052;-56
2022/04/12 12:15:15;;;;;;;2.33;1.67;;;20.50;62.60;;;;;;4900531;29;20536;-55
2022/04/12 12:17:46;;;;;;;2.38;1.33;;;20.40;62.80;;;;;;4911324;29;20095;-55
2022/04/12 12:20:14;;;;;;;2.17;1.00;;;20.30;64.70;;;;;;4916925;29;20497;-55
2022/04/12 12:22:44;;;;;;;4.03;1.55;;;20.40;66.80;;;;;;4917450;29;20040;-55
2022/04/12 12:25:18;;;;;;;2.45;1.20;;;20.40;65.50;;;;;;4915862;29;20056;-55
2022/04/12 12:27:50;;;;;;;3.55;1.30;;;20.40;62.00;;;;;;4900216;29;20040;-55
2022/04/12 12:30:20;;;;;;;2.25;1.10;;;20.40;66.90;;;;;;4916767;29;20457;-55
2022/04/12 12:32:51;;;;;;;3.80;1.30;;;20.30;67.30;;;;;;4917193;29;20040;-55
2022/04/12 12:35:18;;;;;;;1.63;1.30;;;20.30;70.20;;;;;;4912818;29;20379;-55
2022/04/12 12:37:46;;;;;;;4.03;1.00;;;20.30;71.90;;;;;;4916860;29;20557;-55
2022/04/12 12:40:24;;;;;;;2.45;1.33;;;20.20;70.90;;;;;;4916385;29;20048;-53
2022/04/12 12:42:52;;;;;;;2.05;1.33;;;20.10;72.00;;;;;;4913983;29;20175;-55
2022/04/12 12:45:24;;;;;;;3.88;1.23;;;20.10;72.30;;;;;;4915719;29;20044;-56
2022/04/12 12:47:53;;;;;;;5.82;1.63;;;20.00;74.10;;;;;;4916984;29;20044;-53
2022/04/12 12:50:21;;;;;;;3.83;1.35;;;19.70;77.30;;;;;;4915685;29;20532;-56
2022/04/12 12:52:56;;;;;;;3.38;1.13;;;19.70;76.40;;;;;;4911561;29;20040;-56
2022/04/12 12:55:23;;;;;;;3.65;1.15;;;19.70;80.90;;;;;;4916679;29;20044;-54
2022/04/12 12:57:52;;;;;;;1.95;1.10;;;19.80;77.40;;;;;;4916740;29;20048;-55
2022/04/12 13:00:21;;;;;;;2.55;1.30;;;19.90;76.20;;;;;;4907654;29;20049;-55
2022/04/12 13:02:58;;;;;;;7.60;1.38;;;20.00;79.40;;;;;;4916352;29;20040;-55
2022/04/12 13:05:25;;;;;;;5.88;1.85;;;20.20;77.40;;;;;;4916582;29;20052;-54
2022/04/12 13:07:56;;;;;;;3.60;1.10;;;20.20;77.20;;;;;;4916601;29;20048;-55